sensor_id;sensor_type;location;lat;lon;timestamp;temperature;humidity
13794;DHT22;31160;49.500;7.772;2023-12-04T00:02:09;-2.40;99.90
13794;DHT22;31160;49.500;7.772;2023-12-04T00:04:37;-2.40;99.90
13794;DHT22;31160;49.500;7.772;2023-12-04T00:07:05;-2.40;99.90
13794;DHT22;31160;49.500;7.772;2023-12-04T00:09:32;-2.40;99.90
13794;DHT22;31160;49.500;7.772;2023-12-04T00:11:59;-2.40;99.90
13794;DHT22;31160;49.500;7.772;2023-12-04T00:14:26;-2.40;99.90
13794;DHT22;31160;49.500;7.772;2023-12-04T00:16:53;-2.50;99.90
13794;DHT22;31160;49.500;7.772;2023-12-04T00:19:20;-2.40;99.90
13794;DHT22;31160;49.500;7.772;2023-12-04T00:21:47;-2.50;99.90
13794;DHT22;31160;49.500;7.772;2023-12-04T00:24:13;-2.60;99.90
13794;DHT22;31160;49.500;7.772;2023-12-04T00:26:41;-2.60;99.90
13794;DHT22;31160;49.500;7.772;2023-12-04T00:29:08;-2.60;99.90
13794;DHT22;31160;49.500;7.772;2023-12-04T00:31:35;-2.70;99.90
13794;DHT22;31160;49.500;7.772;2023-12-04T00:34:02;-2.60;99.90
13794;DHT22;31160;49.500;7.772;2023-12-04T00:36:30;-2.60;99.90
13794;DHT22;31160;49.500;7.772;2023-12-04T00:38:58;-2.60;99.90
13794;DHT22;31160;49.500;7.772;2023-12-04T00:41:25;-2.60;99.90
13794;DHT22;31160;49.500;7.772;2023-12-04T00:43:53;-2.70;99.90
13794;DHT22;31160;49.500;7.772;2023-12-04T00:46:21;-2.70;99.90
13794;DHT22;31160;49.500;7.772;2023-12-04T00:48:49;-2.60;99.90
13794;DHT22;31160;49.500;7.772;2023-12-04T00:51:16;-2.60;99.90
13794;DHT22;31160;49.500;7.772;2023-12-04T00:53:44;-2.70;99.90
13794;DHT22;31160;49.500;7.772;2023-12-04T00:56:12;-2.70;99.90
13794;DHT22;31160;49.500;7.772;2023-12-04T00:58:40;-2.70;99.90
13794;DHT22;31160;49.500;7.772;2023-12-04T01:01:08;-2.60;99.90
13794;DHT22;31160;49.500;7.772;2023-12-04T01:03:37;-2.60;99.90
13794;DHT22;31160;49.500;7.772;2023-12-04T01:06:05;-2.60;99.90
13794;DHT22;31160;49.500;7.772;2023-12-04T01:08:32;-2.60;99.90
13794;DHT22;31160;49.500;7.772;2023-12-04T01:11:00;-2.60;99.90
13794;DHT22;31160;49.500;7.772;2023-12-04T01:13:28;-2.60;99.90
13794;DHT22;31160;49.500;7.772;2023-12-04T01:15:57;-2.60;99.90
13794;DHT22;31160;49.500;7.772;2023-12-04T01:18:25;-2.60;99.90
13794;DHT22;31160;49.500;7.772;2023-12-04T01:20:52;-2.50;99.90
13794;DHT22;31160;49.500;7.772;2023-12-04T01:23:19;-2.50;99.90
13794;DHT22;31160;49.500;7.772;2023-12-04T01:25:47;-2.60;99.90
13794;DHT22;31160;49.500;7.772;2023-12-04T01:28:14;-2.50;99.90
13794;DHT22;31160;49.500;7.772;2023-12-04T01:30:42;-2.60;99.90
13794;DHT22;31160;49.500;7.772;2023-12-04T01:33:09;-2.60;99.90
13794;DHT22;31160;49.500;7.772;2023-12-04T01:35:37;-2.70;99.90
13794;DHT22;31160;49.500;7.772;2023-12-04T01:38:04;-2.70;99.90
13794;DHT22;31160;49.500;7.772;2023-12-04T01:40:31;-2.70;99.90
13794;DHT22;31160;49.500;7.772;2023-12-04T01:42:58;-2.70;99.90
13794;DHT22;31160;49.500;7.772;2023-12-04T01:45:25;-2.80;99.90
13794;DHT22;31160;49.500;7.772;2023-12-04T01:47:51;-2.80;99.90
13794;DHT22;31160;49.500;7.772;2023-12-04T01:50:18;-2.80;99.90
13794;DHT22;31160;49.500;7.772;2023-12-04T01:52:46;-2.80;99.90
13794;DHT22;31160;49.500;7.772;2023-12-04T01:55:15;-2.80;99.90
13794;DHT22;31160;49.500;7.772;2023-12-04T01:57:42;-2.80;99.90
13794;DHT22;31160;49.500;7.772;2023-12-04T02:00:09;-2.80;99.90
13794;DHT22;31160;49.500;7.772;2023-12-04T02:02:39;-2.80;99.90
13794;DHT22;31160;49.500;7.772;2023-12-04T02:05:07;-2.80;99.90
13794;DHT22;31160;49.500;7.772;2023-12-04T02:07:35;-2.80;99.90
13794;DHT22;31160;49.500;7.772;2023-12-04T02:10:05;-2.80;99.90
13794;DHT22;31160;49.500;7.772;2023-12-04T02:12:33;-2.80;99.90
13794;DHT22;31160;49.500;7.772;2023-12-04T02:14:59;-2.80;99.90
13794;DHT22;31160;49.500;7.772;2023-12-04T02:17:28;-2.80;99.90
13794;DHT22;31160;49.500;7.772;2023-12-04T02:19:55;-2.80;99.90
13794;DHT22;31160;49.500;7.772;2023-12-04T02:22:22;-2.80;99.90
13794;DHT22;31160;49.500;7.772;2023-12-04T02:24:48;-2.80;99.90
13794;DHT22;31160;49.500;7.772;2023-12-04T02:27:20;-2.80;99.90
13794;DHT22;31160;49.500;7.772;2023-12-04T02:29:55;-2.70;99.90
13794;DHT22;31160;49.500;7.772;2023-12-04T02:32:23;-2.70;99.90
13794;DHT22;31160;49.500;7.772;2023-12-04T02:34:52;-2.70;99.90
13794;DHT22;31160;49.500;7.772;2023-12-04T02:37:20;-2.70;99.90
13794;DHT22;31160;49.500;7.772;2023-12-04T02:39:47;-2.60;99.90
13794;DHT22;31160;49.500;7.772;2023-12-04T02:42:16;-2.60;99.90
13794;DHT22;31160;49.500;7.772;2023-12-04T02:44:43;-2.60;99.90
13794;DHT22;31160;49.500;7.772;2023-12-04T02:47:10;-2.60;99.90
13794;DHT22;31160;49.500;7.772;2023-12-04T02:49:38;-2.60;99.90
13794;DHT22;31160;49.500;7.772;2023-12-04T02:52:04;-2.60;99.90
13794;DHT22;31160;49.500;7.772;2023-12-04T02:54:31;-2.60;99.90
13794;DHT22;31160;49.500;7.772;2023-12-04T02:56:58;-2.60;99.90
13794;DHT22;31160;49.500;7.772;2023-12-04T02:59:25;-2.60;99.90
13794;DHT22;31160;49.500;7.772;2023-12-04T03:01:52;-2.60;99.90
13794;DHT22;31160;49.500;7.772;2023-12-04T03:04:22;-2.50;99.90
13794;DHT22;31160;49.500;7.772;2023-12-04T03:06:49;-2.50;99.90
13794;DHT22;31160;49.500;7.772;2023-12-04T03:09:15;-2.50;99.90
13794;DHT22;31160;49.500;7.772;2023-12-04T03:11:42;-2.50;99.90
13794;DHT22;31160;49.500;7.772;2023-12-04T03:14:09;-2.50;99.90
13794;DHT22;31160;49.500;7.772;2023-12-04T03:16:36;-2.50;99.90
13794;DHT22;31160;49.500;7.772;2023-12-04T03:19:02;-2.40;99.90
13794;DHT22;31160;49.500;7.772;2023-12-04T03:21:29;-2.40;99.90
13794;DHT22;31160;49.500;7.772;2023-12-04T03:23:57;-2.40;99.90
13794;DHT22;31160;49.500;7.772;2023-12-04T03:26:23;-2.40;99.90
13794;DHT22;31160;49.500;7.772;2023-12-04T03:28:50;-2.30;99.90
13794;DHT22;31160;49.500;7.772;2023-12-04T03:31:17;-2.40;99.90
13794;DHT22;31160;49.500;7.772;2023-12-04T03:33:44;-2.40;99.90
13794;DHT22;31160;49.500;7.772;2023-12-04T03:36:11;-2.40;99.90
13794;DHT22;31160;49.500;7.772;2023-12-04T03:38:37;-2.50;99.90
13794;DHT22;31160;49.500;7.772;2023-12-04T03:41:04;-2.40;99.90
13794;DHT22;31160;49.500;7.772;2023-12-04T03:43:31;-2.40;99.90
13794;DHT22;31160;49.500;7.772;2023-12-04T03:45:58;-2.40;99.90
13794;DHT22;31160;49.500;7.772;2023-12-04T03:48:24;-2.50;99.90
13794;DHT22;31160;49.500;7.772;2023-12-04T03:50:51;-2.40;99.90
13794;DHT22;31160;49.500;7.772;2023-12-04T03:53:18;-2.40;99.90
13794;DHT22;31160;49.500;7.772;2023-12-04T03:55:45;-2.40;99.90
13794;DHT22;31160;49.500;7.772;2023-12-04T03:58:11;-2.50;99.90
13794;DHT22;31160;49.500;7.772;2023-12-04T04:00:38;-2.50;99.90
13794;DHT22;31160;49.500;7.772;2023-12-04T04:03:08;-2.50;99.90
13794;DHT22;31160;49.500;7.772;2023-12-04T04:05:35;-2.50;99.90
13794;DHT22;31160;49.500;7.772;2023-12-04T04:08:02;-2.50;99.90
13794;DHT22;31160;49.500;7.772;2023-12-04T04:10:29;-2.60;99.90
13794;DHT22;31160;49.500;7.772;2023-12-04T04:12:56;-2.60;99.90
13794;DHT22;31160;49.500;7.772;2023-12-04T04:15:23;-2.60;99.90
13794;DHT22;31160;49.500;7.772;2023-12-04T04:17:49;-2.60;99.90
13794;DHT22;31160;49.500;7.772;2023-12-04T04:20:16;-2.50;99.90
13794;DHT22;31160;49.500;7.772;2023-12-04T04:22:43;-2.40;99.90
13794;DHT22;31160;49.500;7.772;2023-12-04T04:25:10;-2.40;99.90
13794;DHT22;31160;49.500;7.772;2023-12-04T04:27:37;-2.50;99.90
13794;DHT22;31160;49.500;7.772;2023-12-04T04:30:05;-2.40;99.90
13794;DHT22;31160;49.500;7.772;2023-12-04T04:32:32;-2.40;99.90
13794;DHT22;31160;49.500;7.772;2023-12-04T04:34:59;-2.30;99.90
13794;DHT22;31160;49.500;7.772;2023-12-04T04:37:26;-2.30;99.90
13794;DHT22;31160;49.500;7.772;2023-12-04T04:39:53;-2.20;99.90
13794;DHT22;31160;49.500;7.772;2023-12-04T04:42:20;-2.20;99.90
13794;DHT22;31160;49.500;7.772;2023-12-04T04:44:47;-2.30;99.90
13794;DHT22;31160;49.500;7.772;2023-12-04T04:47:14;-2.20;99.90
13794;DHT22;31160;49.500;7.772;2023-12-04T04:49:40;-2.20;99.90
13794;DHT22;31160;49.500;7.772;2023-12-04T04:52:09;-2.10;99.90
13794;DHT22;31160;49.500;7.772;2023-12-04T04:54:35;-2.10;99.90
13794;DHT22;31160;49.500;7.772;2023-12-04T04:57:02;-2.10;99.90
13794;DHT22;31160;49.500;7.772;2023-12-04T04:59:29;-2.10;99.90
13794;DHT22;31160;49.500;7.772;2023-12-04T05:01:56;-2.10;99.90
13794;DHT22;31160;49.500;7.772;2023-12-04T05:04:23;-2.10;99.90
13794;DHT22;31160;49.500;7.772;2023-12-04T05:06:51;-2.10;99.90
13794;DHT22;31160;49.500;7.772;2023-12-04T05:09:17;-2.00;99.90
13794;DHT22;31160;49.500;7.772;2023-12-04T05:11:44;-2.00;99.90
13794;DHT22;31160;49.500;7.772;2023-12-04T05:14:12;-2.00;99.90
13794;DHT22;31160;49.500;7.772;2023-12-04T05:16:38;-1.90;99.90
13794;DHT22;31160;49.500;7.772;2023-12-04T05:19:05;-2.00;99.90
13794;DHT22;31160;49.500;7.772;2023-12-04T05:21:32;-2.00;99.90
13794;DHT22;31160;49.500;7.772;2023-12-04T05:23:59;-2.00;99.90
13794;DHT22;31160;49.500;7.772;2023-12-04T05:26:26;-2.00;99.90
13794;DHT22;31160;49.500;7.772;2023-12-04T05:28:52;-2.00;99.90
13794;DHT22;31160;49.500;7.772;2023-12-04T05:31:19;-2.00;99.90
13794;DHT22;31160;49.500;7.772;2023-12-04T05:33:46;-2.00;99.90
13794;DHT22;31160;49.500;7.772;2023-12-04T05:36:13;-2.00;99.90
13794;DHT22;31160;49.500;7.772;2023-12-04T05:38:40;-2.00;99.90
13794;DHT22;31160;49.500;7.772;2023-12-04T05:41:06;-1.90;99.90
13794;DHT22;31160;49.500;7.772;2023-12-04T05:43:33;-2.00;99.90
13794;DHT22;31160;49.500;7.772;2023-12-04T05:46:00;-2.00;99.90
13794;DHT22;31160;49.500;7.772;2023-12-04T05:48:26;-2.10;99.90
13794;DHT22;31160;49.500;7.772;2023-12-04T05:50:53;-2.10;99.90
13794;DHT22;31160;49.500;7.772;2023-12-04T05:53:20;-2.00;99.90
13794;DHT22;31160;49.500;7.772;2023-12-04T05:55:47;-2.00;99.90
13794;DHT22;31160;49.500;7.772;2023-12-04T05:58:13;-2.00;99.90
13794;DHT22;31160;49.500;7.772;2023-12-04T06:00:41;-2.00;99.90
13794;DHT22;31160;49.500;7.772;2023-12-04T06:03:08;-1.90;99.90
13794;DHT22;31160;49.500;7.772;2023-12-04T06:05:34;-1.90;99.90
13794;DHT22;31160;49.500;7.772;2023-12-04T06:08:01;-1.90;99.90
13794;DHT22;31160;49.500;7.772;2023-12-04T06:10:28;-1.80;99.90
13794;DHT22;31160;49.500;7.772;2023-12-04T06:12:55;-1.70;99.90
13794;DHT22;31160;49.500;7.772;2023-12-04T06:15:21;-1.70;99.90
13794;DHT22;31160;49.500;7.772;2023-12-04T06:17:48;-1.70;99.90
13794;DHT22;31160;49.500;7.772;2023-12-04T06:20:15;-1.70;99.90
13794;DHT22;31160;49.500;7.772;2023-12-04T06:22:42;-1.70;99.90
13794;DHT22;31160;49.500;7.772;2023-12-04T06:25:09;-1.70;99.90
13794;DHT22;31160;49.500;7.772;2023-12-04T06:27:36;-1.70;99.90
13794;DHT22;31160;49.500;7.772;2023-12-04T06:30:06;-1.90;99.90
13794;DHT22;31160;49.500;7.772;2023-12-04T06:32:33;-2.00;99.90
13794;DHT22;31160;49.500;7.772;2023-12-04T06:35:00;-2.00;99.90
13794;DHT22;31160;49.500;7.772;2023-12-04T06:37:27;-1.90;99.90
13794;DHT22;31160;49.500;7.772;2023-12-04T06:39:59;-1.90;99.90
13794;DHT22;31160;49.500;7.772;2023-12-04T06:42:27;-1.90;99.90
13794;DHT22;31160;49.500;7.772;2023-12-04T06:44:54;-2.00;99.90
13794;DHT22;31160;49.500;7.772;2023-12-04T06:47:23;-2.00;99.90
13794;DHT22;31160;49.500;7.772;2023-12-04T06:49:50;-1.90;99.90
13794;DHT22;31160;49.500;7.772;2023-12-04T06:52:17;-1.90;99.90
13794;DHT22;31160;49.500;7.772;2023-12-04T06:54:43;-1.90;99.90
13794;DHT22;31160;49.500;7.772;2023-12-04T06:57:10;-1.90;99.90
13794;DHT22;31160;49.500;7.772;2023-12-04T06:59:37;-1.90;99.90
13794;DHT22;31160;49.500;7.772;2023-12-04T07:02:04;-1.80;99.90
13794;DHT22;31160;49.500;7.772;2023-12-04T07:04:32;-1.70;99.90
13794;DHT22;31160;49.500;7.772;2023-12-04T07:06:58;-1.80;99.90
13794;DHT22;31160;49.500;7.772;2023-12-04T07:09:34;-1.70;99.90
13794;DHT22;31160;49.500;7.772;2023-12-04T07:12:01;-1.60;99.90
13794;DHT22;31160;49.500;7.772;2023-12-04T07:14:29;-1.50;99.90
13794;DHT22;31160;49.500;7.772;2023-12-04T07:16:56;-1.40;99.90
13794;DHT22;31160;49.500;7.772;2023-12-04T07:19:23;-1.30;99.90
13794;DHT22;31160;49.500;7.772;2023-12-04T07:21:50;-1.20;99.90
13794;DHT22;31160;49.500;7.772;2023-12-04T07:24:17;-1.20;99.90
13794;DHT22;31160;49.500;7.772;2023-12-04T07:26:44;-1.10;99.90
13794;DHT22;31160;49.500;7.772;2023-12-04T07:29:11;-1.10;99.90
13794;DHT22;31160;49.500;7.772;2023-12-04T07:31:38;-1.00;99.90
13794;DHT22;31160;49.500;7.772;2023-12-04T07:34:04;-1.00;99.90
13794;DHT22;31160;49.500;7.772;2023-12-04T07:36:31;-1.10;99.90
13794;DHT22;31160;49.500;7.772;2023-12-04T07:38:59;-1.10;99.90
13794;DHT22;31160;49.500;7.772;2023-12-04T07:41:25;-1.10;99.90
13794;DHT22;31160;49.500;7.772;2023-12-04T07:43:52;-1.10;99.90
13794;DHT22;31160;49.500;7.772;2023-12-04T07:46:19;-1.10;99.90
13794;DHT22;31160;49.500;7.772;2023-12-04T07:48:46;-1.10;99.90
13794;DHT22;31160;49.500;7.772;2023-12-04T07:51:13;-1.20;99.90
13794;DHT22;31160;49.500;7.772;2023-12-04T07:53:40;-1.20;99.90
13794;DHT22;31160;49.500;7.772;2023-12-04T07:56:07;-1.20;99.90
13794;DHT22;31160;49.500;7.772;2023-12-04T07:58:34;-1.10;99.90
13794;DHT22;31160;49.500;7.772;2023-12-04T08:01:01;-1.00;99.90
13794;DHT22;31160;49.500;7.772;2023-12-04T08:03:27;-1.00;99.90
13794;DHT22;31160;49.500;7.772;2023-12-04T08:05:54;-0.90;99.90
13794;DHT22;31160;49.500;7.772;2023-12-04T08:08:21;-0.80;99.90
13794;DHT22;31160;49.500;7.772;2023-12-04T08:10:48;-0.60;99.90
13794;DHT22;31160;49.500;7.772;2023-12-04T08:13:15;-0.50;99.90
13794;DHT22;31160;49.500;7.772;2023-12-04T08:15:43;-0.30;99.90
13794;DHT22;31160;49.500;7.772;2023-12-04T08:18:11;-0.20;99.90
13794;DHT22;31160;49.500;7.772;2023-12-04T08:20:39;-0.30;99.90
13794;DHT22;31160;49.500;7.772;2023-12-04T08:23:07;-0.30;99.90
13794;DHT22;31160;49.500;7.772;2023-12-04T08:25:34;-0.20;99.90
13794;DHT22;31160;49.500;7.772;2023-12-04T08:28:04;-0.20;99.90
13794;DHT22;31160;49.500;7.772;2023-12-04T08:30:31;-0.10;99.90
13794;DHT22;31160;49.500;7.772;2023-12-04T08:32:58;0.00;99.90
13794;DHT22;31160;49.500;7.772;2023-12-04T08:35:25;0.10;99.90
13794;DHT22;31160;49.500;7.772;2023-12-04T08:37:52;0.00;99.90
13794;DHT22;31160;49.500;7.772;2023-12-04T08:40:19;0.00;99.90
13794;DHT22;31160;49.500;7.772;2023-12-04T08:42:45;0.10;99.90
13794;DHT22;31160;49.500;7.772;2023-12-04T08:45:12;0.10;99.90
13794;DHT22;31160;49.500;7.772;2023-12-04T08:47:39;0.10;99.90
13794;DHT22;31160;49.500;7.772;2023-12-04T08:50:07;0.10;99.90
13794;DHT22;31160;49.500;7.772;2023-12-04T08:52:33;0.00;99.90
13794;DHT22;31160;49.500;7.772;2023-12-04T08:55:00;0.10;99.90
13794;DHT22;31160;49.500;7.772;2023-12-04T08:57:28;0.10;99.90
13794;DHT22;31160;49.500;7.772;2023-12-04T08:59:55;0.20;99.90
13794;DHT22;31160;49.500;7.772;2023-12-04T09:02:22;0.20;99.90
13794;DHT22;31160;49.500;7.772;2023-12-04T09:04:48;0.30;99.90
13794;DHT22;31160;49.500;7.772;2023-12-04T09:07:15;0.30;99.90
13794;DHT22;31160;49.500;7.772;2023-12-04T09:09:45;0.40;99.90
13794;DHT22;31160;49.500;7.772;2023-12-04T09:12:13;0.30;99.90
13794;DHT22;31160;49.500;7.772;2023-12-04T09:14:40;0.40;99.90
13794;DHT22;31160;49.500;7.772;2023-12-04T09:17:07;0.40;99.90
13794;DHT22;31160;49.500;7.772;2023-12-04T09:19:34;0.30;99.90
13794;DHT22;31160;49.500;7.772;2023-12-04T09:22:02;0.30;99.90
13794;DHT22;31160;49.500;7.772;2023-12-04T09:24:43;0.40;99.90
13794;DHT22;31160;49.500;7.772;2023-12-04T09:27:11;0.50;99.90
13794;DHT22;31160;49.500;7.772;2023-12-04T09:29:37;0.40;99.90
13794;DHT22;31160;49.500;7.772;2023-12-04T09:32:04;0.50;99.90
13794;DHT22;31160;49.500;7.772;2023-12-04T09:34:31;0.30;99.90
13794;DHT22;31160;49.500;7.772;2023-12-04T09:36:58;0.10;99.90
13794;DHT22;31160;49.500;7.772;2023-12-04T09:39:36;0.20;99.90
13794;DHT22;31160;49.500;7.772;2023-12-04T09:42:03;0.30;99.90
13794;DHT22;31160;49.500;7.772;2023-12-04T09:44:30;0.30;99.90
13794;DHT22;31160;49.500;7.772;2023-12-04T09:46:59;0.40;99.90
13794;DHT22;31160;49.500;7.772;2023-12-04T09:49:28;0.40;99.90
13794;DHT22;31160;49.500;7.772;2023-12-04T09:52:01;0.40;99.90
13794;DHT22;31160;49.500;7.772;2023-12-04T09:54:29;0.50;99.90
13794;DHT22;31160;49.500;7.772;2023-12-04T09:56:56;0.20;99.90
13794;DHT22;31160;49.500;7.772;2023-12-04T09:59:24;0.00;99.90
13794;DHT22;31160;49.500;7.772;2023-12-04T10:01:52;0.00;99.90
13794;DHT22;31160;49.500;7.772;2023-12-04T10:04:19;0.10;99.90
13794;DHT22;31160;49.500;7.772;2023-12-04T10:06:50;0.20;99.90
13794;DHT22;31160;49.500;7.772;2023-12-04T10:09:18;0.30;99.90
13794;DHT22;31160;49.500;7.772;2023-12-04T10:11:45;0.30;99.90
13794;DHT22;31160;49.500;7.772;2023-12-04T10:14:16;0.20;99.90
13794;DHT22;31160;49.500;7.772;2023-12-04T10:16:44;0.30;99.90
13794;DHT22;31160;49.500;7.772;2023-12-04T10:19:27;0.10;99.90
13794;DHT22;31160;49.500;7.772;2023-12-04T10:21:57;0.10;99.90
13794;DHT22;31160;49.500;7.772;2023-12-04T10:24:39;0.20;99.90
13794;DHT22;31160;49.500;7.772;2023-12-04T10:27:08;0.30;99.90
13794;DHT22;31160;49.500;7.772;2023-12-04T10:32:09;0.20;99.90
13794;DHT22;31160;49.500;7.772;2023-12-04T10:34:36;0.40;99.90
13794;DHT22;31160;49.500;7.772;2023-12-04T10:37:04;0.40;99.90
13794;DHT22;31160;49.500;7.772;2023-12-04T10:39:48;0.40;99.90
13794;DHT22;31160;49.500;7.772;2023-12-04T10:42:26;0.60;99.90
13794;DHT22;31160;49.500;7.772;2023-12-04T10:44:57;0.60;99.90
13794;DHT22;31160;49.500;7.772;2023-12-04T10:47:25;0.60;99.90
13794;DHT22;31160;49.500;7.772;2023-12-04T10:49:52;0.70;99.90
13794;DHT22;31160;49.500;7.772;2023-12-04T10:52:19;0.60;99.90
13794;DHT22;31160;49.500;7.772;2023-12-04T10:54:47;0.40;99.90
13794;DHT22;31160;49.500;7.772;2023-12-04T10:57:22;0.40;99.90
13794;DHT22;31160;49.500;7.772;2023-12-04T10:59:56;0.50;99.90
13794;DHT22;31160;49.500;7.772;2023-12-04T11:02:26;0.40;99.90
13794;DHT22;31160;49.500;7.772;2023-12-04T11:04:58;0.50;99.90
13794;DHT22;31160;49.500;7.772;2023-12-04T11:07:27;0.50;99.90
13794;DHT22;31160;49.500;7.772;2023-12-04T11:10:17;0.50;99.90
13794;DHT22;31160;49.500;7.772;2023-12-04T11:12:45;0.60;99.90
13794;DHT22;31160;49.500;7.772;2023-12-04T11:15:17;0.60;99.90
13794;DHT22;31160;49.500;7.772;2023-12-04T11:17:49;0.70;99.90
13794;DHT22;31160;49.500;7.772;2023-12-04T11:20:18;0.80;99.90
13794;DHT22;31160;49.500;7.772;2023-12-04T11:22:47;0.80;99.90
13794;DHT22;31160;49.500;7.772;2023-12-04T11:25:15;0.90;99.90
13794;DHT22;31160;49.500;7.772;2023-12-04T11:27:43;0.90;99.90
13794;DHT22;31160;49.500;7.772;2023-12-04T11:30:11;1.00;99.90
13794;DHT22;31160;49.500;7.772;2023-12-04T11:32:48;1.00;99.90
13794;DHT22;31160;49.500;7.772;2023-12-04T11:35:16;1.10;99.90
13794;DHT22;31160;49.500;7.772;2023-12-04T11:37:45;1.10;99.90
13794;DHT22;31160;49.500;7.772;2023-12-04T11:40:15;1.20;99.90
13794;DHT22;31160;49.500;7.772;2023-12-04T11:42:42;1.10;99.90
13794;DHT22;31160;49.500;7.772;2023-12-04T11:45:09;1.10;99.90
13794;DHT22;31160;49.500;7.772;2023-12-04T11:47:49;0.90;99.90
13794;DHT22;31160;49.500;7.772;2023-12-04T11:50:19;0.90;99.90
13794;DHT22;31160;49.500;7.772;2023-12-04T11:52:47;0.90;99.90
13794;DHT22;31160;49.500;7.772;2023-12-04T11:55:19;1.00;99.90
13794;DHT22;31160;49.500;7.772;2023-12-04T11:57:46;1.10;99.90
13794;DHT22;31160;49.500;7.772;2023-12-04T12:00:22;1.20;99.90
13794;DHT22;31160;49.500;7.772;2023-12-04T12:05:40;1.20;99.90
13794;DHT22;31160;49.500;7.772;2023-12-04T12:08:08;1.20;99.90
13794;DHT22;31160;49.500;7.772;2023-12-04T12:10:35;1.10;99.90
13794;DHT22;31160;49.500;7.772;2023-12-04T12:13:02;1.20;99.90
13794;DHT22;31160;49.500;7.772;2023-12-04T12:15:30;1.40;99.90
13794;DHT22;31160;49.500;7.772;2023-12-04T12:17:57;1.50;99.90
13794;DHT22;31160;49.500;7.772;2023-12-04T12:20:25;1.70;99.90
13794;DHT22;31160;49.500;7.772;2023-12-04T12:22:52;1.70;99.90
13794;DHT22;31160;49.500;7.772;2023-12-04T12:25:19;1.80;99.90
13794;DHT22;31160;49.500;7.772;2023-12-04T12:27:46;1.90;99.90
13794;DHT22;31160;49.500;7.772;2023-12-04T12:30:13;1.90;99.90
13794;DHT22;31160;49.500;7.772;2023-12-04T12:32:41;1.80;99.90
13794;DHT22;31160;49.500;7.772;2023-12-04T12:35:08;1.90;99.90
13794;DHT22;31160;49.500;7.772;2023-12-04T12:37:35;2.00;99.90
13794;DHT22;31160;49.500;7.772;2023-12-04T12:40:04;2.00;99.90
13794;DHT22;31160;49.500;7.772;2023-12-04T12:42:31;2.10;99.90
13794;DHT22;31160;49.500;7.772;2023-12-04T12:45:01;2.00;99.90
13794;DHT22;31160;49.500;7.772;2023-12-04T12:47:29;2.10;99.90
13794;DHT22;31160;49.500;7.772;2023-12-04T12:49:56;2.10;99.90
13794;DHT22;31160;49.500;7.772;2023-12-04T12:52:23;2.10;99.90
13794;DHT22;31160;49.500;7.772;2023-12-04T12:54:52;1.80;99.90
13794;DHT22;31160;49.500;7.772;2023-12-04T12:57:18;1.60;99.90
13794;DHT22;31160;49.500;7.772;2023-12-04T12:59:46;1.30;99.90
13794;DHT22;31160;49.500;7.772;2023-12-04T13:02:14;1.50;99.90
13794;DHT22;31160;49.500;7.772;2023-12-04T13:04:41;1.60;99.90
13794;DHT22;31160;49.500;7.772;2023-12-04T13:07:09;1.50;99.90
13794;DHT22;31160;49.500;7.772;2023-12-04T13:09:36;1.60;99.90
13794;DHT22;31160;49.500;7.772;2023-12-04T13:12:07;1.50;99.90
13794;DHT22;31160;49.500;7.772;2023-12-04T13:14:34;1.70;99.90
13794;DHT22;31160;49.500;7.772;2023-12-04T13:17:03;1.70;99.90
13794;DHT22;31160;49.500;7.772;2023-12-04T13:19:30;1.60;99.90
13794;DHT22;31160;49.500;7.772;2023-12-04T13:22:01;1.60;99.90
13794;DHT22;31160;49.500;7.772;2023-12-04T13:24:31;1.70;99.90
13794;DHT22;31160;49.500;7.772;2023-12-04T13:26:57;1.80;99.90
13794;DHT22;31160;49.500;7.772;2023-12-04T13:29:24;1.80;99.90
13794;DHT22;31160;49.500;7.772;2023-12-04T13:31:51;1.70;99.90
13794;DHT22;31160;49.500;7.772;2023-12-04T13:34:18;1.60;99.90
13794;DHT22;31160;49.500;7.772;2023-12-04T13:36:45;1.60;99.90
13794;DHT22;31160;49.500;7.772;2023-12-04T13:39:11;1.50;99.90
13794;DHT22;31160;49.500;7.772;2023-12-04T13:41:49;1.50;99.90
13794;DHT22;31160;49.500;7.772;2023-12-04T13:44:34;1.40;99.90
13794;DHT22;31160;49.500;7.772;2023-12-04T13:47:01;1.50;99.90
13794;DHT22;31160;49.500;7.772;2023-12-04T13:49:28;1.50;99.90
13794;DHT22;31160;49.500;7.772;2023-12-04T13:51:55;1.50;99.90
13794;DHT22;31160;49.500;7.772;2023-12-04T13:54:22;1.40;99.90
13794;DHT22;31160;49.500;7.772;2023-12-04T13:57:01;1.20;99.90
13794;DHT22;31160;49.500;7.772;2023-12-04T13:59:27;1.00;99.90
13794;DHT22;31160;49.500;7.772;2023-12-04T14:01:55;1.10;99.90
13794;DHT22;31160;49.500;7.772;2023-12-04T14:04:27;1.20;99.90
13794;DHT22;31160;49.500;7.772;2023-12-04T14:06:54;1.30;99.90
13794;DHT22;31160;49.500;7.772;2023-12-04T14:09:25;1.40;99.90
13794;DHT22;31160;49.500;7.772;2023-12-04T14:11:52;1.40;99.90
13794;DHT22;31160;49.500;7.772;2023-12-04T14:14:19;1.50;99.90
13794;DHT22;31160;49.500;7.772;2023-12-04T14:16:46;1.40;99.90
13794;DHT22;31160;49.500;7.772;2023-12-04T14:19:13;1.40;99.90
13794;DHT22;31160;49.500;7.772;2023-12-04T14:21:43;1.30;99.90
13794;DHT22;31160;49.500;7.772;2023-12-04T14:24:10;1.10;99.90
13794;DHT22;31160;49.500;7.772;2023-12-04T14:26:37;1.00;99.90
13794;DHT22;31160;49.500;7.772;2023-12-04T14:29:03;0.90;99.90
13794;DHT22;31160;49.500;7.772;2023-12-04T14:31:30;1.00;99.90
13794;DHT22;31160;49.500;7.772;2023-12-04T14:33:57;0.90;99.90
13794;DHT22;31160;49.500;7.772;2023-12-04T14:36:24;0.80;99.90
13794;DHT22;31160;49.500;7.772;2023-12-04T14:38:53;1.00;99.90
13794;DHT22;31160;49.500;7.772;2023-12-04T14:41:20;1.10;99.90
13794;DHT22;31160;49.500;7.772;2023-12-04T14:43:46;1.20;99.90
13794;DHT22;31160;49.500;7.772;2023-12-04T14:46:13;1.30;99.90
13794;DHT22;31160;49.500;7.772;2023-12-04T14:48:40;1.20;99.90
13794;DHT22;31160;49.500;7.772;2023-12-04T14:51:08;1.30;99.90
13794;DHT22;31160;49.500;7.772;2023-12-04T14:53:39;1.30;99.90
13794;DHT22;31160;49.500;7.772;2023-12-04T14:56:17;1.10;99.90
13794;DHT22;31160;49.500;7.772;2023-12-04T14:58:47;1.10;99.90
13794;DHT22;31160;49.500;7.772;2023-12-04T15:01:32;1.20;99.90
13794;DHT22;31160;49.500;7.772;2023-12-04T15:04:25;1.20;99.90
13794;DHT22;31160;49.500;7.772;2023-12-04T15:07:30;1.10;99.90
13794;DHT22;31160;49.500;7.772;2023-12-04T15:10:21;1.10;99.90
13794;DHT22;31160;49.500;7.772;2023-12-04T15:13:27;1.00;99.90
13794;DHT22;31160;49.500;7.772;2023-12-04T15:16:09;1.00;99.90
13794;DHT22;31160;49.500;7.772;2023-12-04T15:18:54;1.00;99.90
13794;DHT22;31160;49.500;7.772;2023-12-04T15:21:37;1.10;99.90
13794;DHT22;31160;49.500;7.772;2023-12-04T15:24:04;1.10;99.90
13794;DHT22;31160;49.500;7.772;2023-12-04T15:26:33;1.20;99.90
13794;DHT22;31160;49.500;7.772;2023-12-04T15:29:00;1.20;99.90
13794;DHT22;31160;49.500;7.772;2023-12-04T15:31:27;1.20;99.90
13794;DHT22;31160;49.500;7.772;2023-12-04T15:33:54;1.30;99.90
13794;DHT22;31160;49.500;7.772;2023-12-04T15:36:21;1.30;99.90
13794;DHT22;31160;49.500;7.772;2023-12-04T15:38:49;1.40;99.90
13794;DHT22;31160;49.500;7.772;2023-12-04T15:41:16;1.40;99.90
13794;DHT22;31160;49.500;7.772;2023-12-04T15:43:44;1.50;99.90
13794;DHT22;31160;49.500;7.772;2023-12-04T15:46:15;1.40;99.90
13794;DHT22;31160;49.500;7.772;2023-12-04T15:48:44;1.40;99.90
13794;DHT22;31160;49.500;7.772;2023-12-04T15:51:11;1.40;99.90